sensor_id;sensor_type;location;lat;lon;timestamp;temperature;humidity
47961;DHT22;33721;48.852;9.936;2023-04-28T00:01:35;7.90;99.90
47961;DHT22;33721;48.852;9.936;2023-04-28T00:04:00;7.90;99.90
47961;DHT22;33721;48.852;9.936;2023-04-28T00:06:26;7.90;99.90
47961;DHT22;33721;48.852;9.936;2023-04-28T00:08:52;7.90;99.90
47961;DHT22;33721;48.852;9.936;2023-04-28T00:11:18;7.90;99.90
47961;DHT22;33721;48.852;9.936;2023-04-28T00:13:43;7.90;99.90
47961;DHT22;33721;48.852;9.936;2023-04-28T00:16:09;7.80;99.90
47961;DHT22;33721;48.852;9.936;2023-04-28T00:18:34;7.70;99.90
47961;DHT22;33721;48.852;9.936;2023-04-28T00:21:00;7.70;99.90
47961;DHT22;33721;48.852;9.936;2023-04-28T00:23:26;7.70;99.90
47961;DHT22;33721;48.852;9.936;2023-04-28T00:25:53;7.70;99.90
47961;DHT22;33721;48.852;9.936;2023-04-28T00:28:19;7.70;99.90
47961;DHT22;33721;48.852;9.936;2023-04-28T00:30:45;7.70;99.90
47961;DHT22;33721;48.852;9.936;2023-04-28T00:33:11;7.80;99.90
47961;DHT22;33721;48.852;9.936;2023-04-28T00:35:38;7.80;99.90
47961;DHT22;33721;48.852;9.936;2023-04-28T00:38:04;7.80;99.90
47961;DHT22;33721;48.852;9.936;2023-04-28T00:40:33;7.80;99.90
47961;DHT22;33721;48.852;9.936;2023-04-28T00:42:59;7.80;99.90
47961;DHT22;33721;48.852;9.936;2023-04-28T00:45:25;7.70;99.90
47961;DHT22;33721;48.852;9.936;2023-04-28T00:47:51;7.70;99.90
47961;DHT22;33721;48.852;9.936;2023-04-28T00:50:17;7.70;99.90
47961;DHT22;33721;48.852;9.936;2023-04-28T00:52:42;7.80;99.90
47961;DHT22;33721;48.852;9.936;2023-04-28T00:55:08;7.70;99.90
47961;DHT22;33721;48.852;9.936;2023-04-28T00:57:35;7.70;99.90
47961;DHT22;33721;48.852;9.936;2023-04-28T01:00:01;7.70;99.90
47961;DHT22;33721;48.852;9.936;2023-04-28T01:02:26;7.80;99.90
47961;DHT22;33721;48.852;9.936;2023-04-28T01:04:55;7.70;99.90
47961;DHT22;33721;48.852;9.936;2023-04-28T01:07:21;7.60;99.90
47961;DHT22;33721;48.852;9.936;2023-04-28T01:09:47;7.70;99.90
47961;DHT22;33721;48.852;9.936;2023-04-28T01:12:12;7.70;99.90
47961;DHT22;33721;48.852;9.936;2023-04-28T01:14:38;7.70;99.90
47961;DHT22;33721;48.852;9.936;2023-04-28T01:17:04;7.70;99.90
47961;DHT22;33721;48.852;9.936;2023-04-28T01:19:30;7.70;99.90
47961;DHT22;33721;48.852;9.936;2023-04-28T01:21:56;7.80;99.90
47961;DHT22;33721;48.852;9.936;2023-04-28T01:24:22;7.80;99.90
47961;DHT22;33721;48.852;9.936;2023-04-28T01:26:47;7.80;99.90
47961;DHT22;33721;48.852;9.936;2023-04-28T01:29:13;7.90;99.90
47961;DHT22;33721;48.852;9.936;2023-04-28T01:31:38;8.00;99.90
47961;DHT22;33721;48.852;9.936;2023-04-28T01:34:04;7.90;99.90
47961;DHT22;33721;48.852;9.936;2023-04-28T01:36:30;8.10;99.90
47961;DHT22;33721;48.852;9.936;2023-04-28T01:38:56;8.10;99.90
47961;DHT22;33721;48.852;9.936;2023-04-28T01:41:22;8.10;99.90
47961;DHT22;33721;48.852;9.936;2023-04-28T01:43:47;8.10;99.90
47961;DHT22;33721;48.852;9.936;2023-04-28T01:46:13;8.20;99.90
47961;DHT22;33721;48.852;9.936;2023-04-28T01:48:38;8.20;99.90
47961;DHT22;33721;48.852;9.936;2023-04-28T01:51:04;8.20;99.90
47961;DHT22;33721;48.852;9.936;2023-04-28T01:53:30;8.20;99.90
47961;DHT22;33721;48.852;9.936;2023-04-28T01:55:55;8.20;99.90
47961;DHT22;33721;48.852;9.936;2023-04-28T01:58:23;8.20;99.90
47961;DHT22;33721;48.852;9.936;2023-04-28T02:00:48;8.20;99.90
47961;DHT22;33721;48.852;9.936;2023-04-28T02:03:14;8.20;99.90
47961;DHT22;33721;48.852;9.936;2023-04-28T02:05:40;8.20;99.90
47961;DHT22;33721;48.852;9.936;2023-04-28T02:08:06;8.20;99.90
47961;DHT22;33721;48.852;9.936;2023-04-28T02:10:31;8.20;99.90
47961;DHT22;33721;48.852;9.936;2023-04-28T02:12:57;8.20;99.90
47961;DHT22;33721;48.852;9.936;2023-04-28T02:15:23;8.20;99.90
47961;DHT22;33721;48.852;9.936;2023-04-28T02:17:48;8.20;99.90
47961;DHT22;33721;48.852;9.936;2023-04-28T02:20:14;8.10;99.90
47961;DHT22;33721;48.852;9.936;2023-04-28T02:22:41;8.10;99.90
47961;DHT22;33721;48.852;9.936;2023-04-28T02:25:07;7.90;99.90
47961;DHT22;33721;48.852;9.936;2023-04-28T02:27:36;7.70;99.90
47961;DHT22;33721;48.852;9.936;2023-04-28T02:30:05;7.70;99.90
47961;DHT22;33721;48.852;9.936;2023-04-28T02:32:31;7.60;99.90
47961;DHT22;33721;48.852;9.936;2023-04-28T02:34:57;7.70;99.90
47961;DHT22;33721;48.852;9.936;2023-04-28T02:37:22;7.70;99.90
47961;DHT22;33721;48.852;9.936;2023-04-28T02:39:48;7.90;99.90
47961;DHT22;33721;48.852;9.936;2023-04-28T02:42:14;8.10;99.90
47961;DHT22;33721;48.852;9.936;2023-04-28T02:44:39;8.00;99.90
47961;DHT22;33721;48.852;9.936;2023-04-28T02:47:05;7.90;99.90
47961;DHT22;33721;48.852;9.936;2023-04-28T02:49:31;7.80;99.90
47961;DHT22;33721;48.852;9.936;2023-04-28T02:51:56;7.90;99.90
47961;DHT22;33721;48.852;9.936;2023-04-28T02:54:22;7.90;99.90
47961;DHT22;33721;48.852;9.936;2023-04-28T02:56:54;7.90;99.90
47961;DHT22;33721;48.852;9.936;2023-04-28T02:59:20;8.00;99.90
47961;DHT22;33721;48.852;9.936;2023-04-28T03:01:46;8.30;99.90
47961;DHT22;33721;48.852;9.936;2023-04-28T03:04:12;8.50;99.90
47961;DHT22;33721;48.852;9.936;2023-04-28T03:06:38;8.70;99.90
47961;DHT22;33721;48.852;9.936;2023-04-28T03:09:04;8.90;99.90
47961;DHT22;33721;48.852;9.936;2023-04-28T03:11:29;9.10;99.90
47961;DHT22;33721;48.852;9.936;2023-04-28T03:13:55;9.20;99.90
47961;DHT22;33721;48.852;9.936;2023-04-28T03:16:21;9.30;99.90
47961;DHT22;33721;48.852;9.936;2023-04-28T03:18:46;9.50;99.90
47961;DHT22;33721;48.852;9.936;2023-04-28T03:21:12;9.70;99.90
47961;DHT22;33721;48.852;9.936;2023-04-28T03:23:37;9.60;99.90
47961;DHT22;33721;48.852;9.936;2023-04-28T03:26:03;9.60;99.90
47961;DHT22;33721;48.852;9.936;2023-04-28T03:28:29;9.60;99.90
47961;DHT22;33721;48.852;9.936;2023-04-28T03:30:54;9.60;99.90
47961;DHT22;33721;48.852;9.936;2023-04-28T03:33:20;9.80;99.90
47961;DHT22;33721;48.852;9.936;2023-04-28T03:35:46;9.80;99.90
47961;DHT22;33721;48.852;9.936;2023-04-28T03:38:11;9.90;99.90
47961;DHT22;33721;48.852;9.936;2023-04-28T03:40:37;9.90;99.90
47961;DHT22;33721;48.852;9.936;2023-04-28T03:43:02;9.90;99.90
47961;DHT22;33721;48.852;9.936;2023-04-28T03:45:28;10.00;99.90
47961;DHT22;33721;48.852;9.936;2023-04-28T03:47:54;10.20;99.90
47961;DHT22;33721;48.852;9.936;2023-04-28T03:50:20;10.20;99.90
47961;DHT22;33721;48.852;9.936;2023-04-28T03:52:45;10.00;99.90
47961;DHT22;33721;48.852;9.936;2023-04-28T03:55:11;10.10;99.90
47961;DHT22;33721;48.852;9.936;2023-04-28T03:57:37;10.20;99.90
47961;DHT22;33721;48.852;9.936;2023-04-28T04:00:02;10.20;99.90
47961;DHT22;33721;48.852;9.936;2023-04-28T04:02:28;10.30;99.90
47961;DHT22;33721;48.852;9.936;2023-04-28T04:04:54;10.40;99.90
47961;DHT22;33721;48.852;9.936;2023-04-28T04:07:21;10.40;99.90
47961;DHT22;33721;48.852;9.936;2023-04-28T04:09:47;10.40;99.90
47961;DHT22;33721;48.852;9.936;2023-04-28T04:12:13;10.40;99.90
47961;DHT22;33721;48.852;9.936;2023-04-28T04:14:39;10.40;99.90
47961;DHT22;33721;48.852;9.936;2023-04-28T04:17:05;10.40;99.90
47961;DHT22;33721;48.852;9.936;2023-04-28T04:19:30;10.40;99.90
47961;DHT22;33721;48.852;9.936;2023-04-28T04:21:56;10.20;99.90
47961;DHT22;33721;48.852;9.936;2023-04-28T04:24:22;10.20;99.90
47961;DHT22;33721;48.852;9.936;2023-04-28T04:26:47;10.20;99.90
47961;DHT22;33721;48.852;9.936;2023-04-28T04:29:13;10.20;99.90
47961;DHT22;33721;48.852;9.936;2023-04-28T04:31:41;10.10;99.90
47961;DHT22;33721;48.852;9.936;2023-04-28T04:34:09;10.20;99.90
47961;DHT22;33721;48.852;9.936;2023-04-28T04:36:35;10.30;99.90
47961;DHT22;33721;48.852;9.936;2023-04-28T04:39:01;10.30;99.90
47961;DHT22;33721;48.852;9.936;2023-04-28T04:41:27;10.40;99.90
47961;DHT22;33721;48.852;9.936;2023-04-28T04:43:52;10.40;99.90
47961;DHT22;33721;48.852;9.936;2023-04-28T04:46:18;10.50;99.90
47961;DHT22;33721;48.852;9.936;2023-04-28T04:48:44;10.40;99.90
47961;DHT22;33721;48.852;9.936;2023-04-28T04:51:10;10.40;99.90
47961;DHT22;33721;48.852;9.936;2023-04-28T04:53:36;10.40;99.90
47961;DHT22;33721;48.852;9.936;2023-04-28T04:56:04;10.40;99.90
47961;DHT22;33721;48.852;9.936;2023-04-28T04:58:30;10.40;99.90
47961;DHT22;33721;48.852;9.936;2023-04-28T05:00:56;10.40;99.90
47961;DHT22;33721;48.852;9.936;2023-04-28T05:03:21;10.40;99.90
47961;DHT22;33721;48.852;9.936;2023-04-28T05:05:47;10.40;99.90
47961;DHT22;33721;48.852;9.936;2023-04-28T05:08:13;10.40;99.90
47961;DHT22;33721;48.852;9.936;2023-04-28T05:10:39;10.40;99.90
47961;DHT22;33721;48.852;9.936;2023-04-28T05:13:04;10.40;99.90
47961;DHT22;33721;48.852;9.936;2023-04-28T05:15:30;10.40;99.90
47961;DHT22;33721;48.852;9.936;2023-04-28T05:17:56;10.50;99.90
47961;DHT22;33721;48.852;9.936;2023-04-28T05:20:22;10.50;99.90
47961;DHT22;33721;48.852;9.936;2023-04-28T05:22:48;10.50;99.90
47961;DHT22;33721;48.852;9.936;2023-04-28T05:25:14;10.50;99.90
47961;DHT22;33721;48.852;9.936;2023-04-28T05:27:40;10.50;99.90
47961;DHT22;33721;48.852;9.936;2023-04-28T05:30:07;10.50;99.90
47961;DHT22;33721;48.852;9.936;2023-04-28T05:32:33;10.50;99.90
47961;DHT22;33721;48.852;9.936;2023-04-28T05:34:59;10.50;99.90
47961;DHT22;33721;48.852;9.936;2023-04-28T05:37:25;10.50;99.90
47961;DHT22;33721;48.852;9.936;2023-04-28T05:39:51;10.60;99.90
47961;DHT22;33721;48.852;9.936;2023-04-28T05:42:16;10.60;99.90
47961;DHT22;33721;48.852;9.936;2023-04-28T05:44:42;10.60;99.90
47961;DHT22;33721;48.852;9.936;2023-04-28T05:47:08;10.60;99.90
47961;DHT22;33721;48.852;9.936;2023-04-28T05:49:33;10.60;99.90
47961;DHT22;33721;48.852;9.936;2023-04-28T05:51:59;10.60;99.90
47961;DHT22;33721;48.852;9.936;2023-04-28T05:54:24;10.60;99.90
47961;DHT22;33721;48.852;9.936;2023-04-28T05:56:51;10.70;99.90
47961;DHT22;33721;48.852;9.936;2023-04-28T05:59:17;10.70;99.90
47961;DHT22;33721;48.852;9.936;2023-04-28T06:01:43;10.70;99.90
47961;DHT22;33721;48.852;9.936;2023-04-28T06:04:09;10.70;99.90
47961;DHT22;33721;48.852;9.936;2023-04-28T06:06:35;10.70;99.90
47961;DHT22;33721;48.852;9.936;2023-04-28T06:09:01;10.70;99.90
47961;DHT22;33721;48.852;9.936;2023-04-28T06:11:27;10.70;99.90
47961;DHT22;33721;48.852;9.936;2023-04-28T06:13:53;10.70;99.90
47961;DHT22;33721;48.852;9.936;2023-04-28T06:16:19;10.70;99.90
47961;DHT22;33721;48.852;9.936;2023-04-28T06:18:44;10.70;99.90
47961;DHT22;33721;48.852;9.936;2023-04-28T06:21:10;10.80;99.90
47961;DHT22;33721;48.852;9.936;2023-04-28T06:23:36;10.80;99.90
47961;DHT22;33721;48.852;9.936;2023-04-28T06:26:03;10.80;99.90
47961;DHT22;33721;48.852;9.936;2023-04-28T06:28:28;10.90;99.90
47961;DHT22;33721;48.852;9.936;2023-04-28T06:30:56;10.90;99.90
47961;DHT22;33721;48.852;9.936;2023-04-28T06:33:24;10.90;99.90
47961;DHT22;33721;48.852;9.936;2023-04-28T06:35:50;11.00;99.90
47961;DHT22;33721;48.852;9.936;2023-04-28T06:38:16;11.00;99.90
47961;DHT22;33721;48.852;9.936;2023-04-28T06:40:41;11.10;99.90
47961;DHT22;33721;48.852;9.936;2023-04-28T06:43:07;11.10;99.90
47961;DHT22;33721;48.852;9.936;2023-04-28T06:45:33;11.20;99.90
47961;DHT22;33721;48.852;9.936;2023-04-28T06:47:59;11.20;99.90
47961;DHT22;33721;48.852;9.936;2023-04-28T06:50:30;11.30;99.90
47961;DHT22;33721;48.852;9.936;2023-04-28T06:52:56;11.30;99.90
47961;DHT22;33721;48.852;9.936;2023-04-28T06:55:23;11.40;99.90
47961;DHT22;33721;48.852;9.936;2023-04-28T06:57:51;11.40;99.90
47961;DHT22;33721;48.852;9.936;2023-04-28T07:00:17;11.40;99.90
47961;DHT22;33721;48.852;9.936;2023-04-28T07:02:44;11.50;99.90
47961;DHT22;33721;48.852;9.936;2023-04-28T07:05:10;11.60;99.90
47961;DHT22;33721;48.852;9.936;2023-04-28T07:07:36;11.60;99.90
47961;DHT22;33721;48.852;9.936;2023-04-28T07:10:04;11.60;99.90
47961;DHT22;33721;48.852;9.936;2023-04-28T07:12:29;11.50;99.90
47961;DHT22;33721;48.852;9.936;2023-04-28T07:14:55;11.50;99.90
47961;DHT22;33721;48.852;9.936;2023-04-28T07:17:21;11.60;99.90
47961;DHT22;33721;48.852;9.936;2023-04-28T07:19:46;11.60;99.90
47961;DHT22;33721;48.852;9.936;2023-04-28T07:22:14;11.60;99.90
47961;DHT22;33721;48.852;9.936;2023-04-28T07:24:39;11.60;99.90
47961;DHT22;33721;48.852;9.936;2023-04-28T07:27:05;11.60;99.90
47961;DHT22;33721;48.852;9.936;2023-04-28T07:29:31;11.60;99.90
47961;DHT22;33721;48.852;9.936;2023-04-28T07:32:01;11.70;99.90
47961;DHT22;33721;48.852;9.936;2023-04-28T07:34:32;11.70;99.90
47961;DHT22;33721;48.852;9.936;2023-04-28T07:36:58;11.70;99.90
47961;DHT22;33721;48.852;9.936;2023-04-28T07:39:24;11.70;99.90
47961;DHT22;33721;48.852;9.936;2023-04-28T07:41:49;11.80;99.90
47961;DHT22;33721;48.852;9.936;2023-04-28T07:44:15;11.70;99.90
47961;DHT22;33721;48.852;9.936;2023-04-28T07:46:41;11.70;99.90
47961;DHT22;33721;48.852;9.936;2023-04-28T07:49:06;11.70;99.90
47961;DHT22;33721;48.852;9.936;2023-04-28T07:51:32;11.70;99.90
47961;DHT22;33721;48.852;9.936;2023-04-28T07:53:58;11.70;99.90
47961;DHT22;33721;48.852;9.936;2023-04-28T07:56:26;11.60;99.90
47961;DHT22;33721;48.852;9.936;2023-04-28T07:58:52;11.60;99.90
47961;DHT22;33721;48.852;9.936;2023-04-28T08:01:18;11.60;99.90
47961;DHT22;33721;48.852;9.936;2023-04-28T08:03:43;11.50;99.90
47961;DHT22;33721;48.852;9.936;2023-04-28T08:06:12;11.50;99.90
47961;DHT22;33721;48.852;9.936;2023-04-28T08:08:40;11.50;99.90
47961;DHT22;33721;48.852;9.936;2023-04-28T08:11:06;11.50;99.90
47961;DHT22;33721;48.852;9.936;2023-04-28T08:13:32;11.50;99.90
47961;DHT22;33721;48.852;9.936;2023-04-28T08:15:58;11.50;99.90
47961;DHT22;33721;48.852;9.936;2023-04-28T08:18:27;11.50;99.90
47961;DHT22;33721;48.852;9.936;2023-04-28T08:20:53;11.50;99.90
47961;DHT22;33721;48.852;9.936;2023-04-28T08:23:19;11.50;99.90
47961;DHT22;33721;48.852;9.936;2023-04-28T08:25:45;11.50;99.90
47961;DHT22;33721;48.852;9.936;2023-04-28T08:28:17;11.50;99.90
47961;DHT22;33721;48.852;9.936;2023-04-28T08:30:42;11.50;99.90
47961;DHT22;33721;48.852;9.936;2023-04-28T08:33:08;11.50;99.90
47961;DHT22;33721;48.852;9.936;2023-04-28T08:35:36;11.50;99.90
47961;DHT22;33721;48.852;9.936;2023-04-28T08:38:02;11.50;99.90
47961;DHT22;33721;48.852;9.936;2023-04-28T08:40:27;11.60;99.90
47961;DHT22;33721;48.852;9.936;2023-04-28T08:42:55;11.60;99.90
47961;DHT22;33721;48.852;9.936;2023-04-28T08:45:23;11.70;99.90
47961;DHT22;33721;48.852;9.936;2023-04-28T08:47:53;11.70;99.90
47961;DHT22;33721;48.852;9.936;2023-04-28T08:50:24;11.70;99.90
47961;DHT22;33721;48.852;9.936;2023-04-28T08:52:51;11.70;99.90
47961;DHT22;33721;48.852;9.936;2023-04-28T08:55:20;11.70;99.90
47961;DHT22;33721;48.852;9.936;2023-04-28T08:57:52;11.70;99.90
47961;DHT22;33721;48.852;9.936;2023-04-28T09:00:19;11.60;99.90
47961;DHT22;33721;48.852;9.936;2023-04-28T09:02:45;11.50;99.90
47961;DHT22;33721;48.852;9.936;2023-04-28T09:05:13;11.50;99.90
47961;DHT22;33721;48.852;9.936;2023-04-28T09:07:44;11.50;99.90
47961;DHT22;33721;48.852;9.936;2023-04-28T09:10:21;11.60;99.90
47961;DHT22;33721;48.852;9.936;2023-04-28T09:12:53;11.60;99.90
47961;DHT22;33721;48.852;9.936;2023-04-28T09:15:27;11.60;99.90
47961;DHT22;33721;48.852;9.936;2023-04-28T09:17:53;11.70;99.90
47961;DHT22;33721;48.852;9.936;2023-04-28T09:20:22;11.70;99.90
47961;DHT22;33721;48.852;9.936;2023-04-28T09:22:52;11.70;99.90
47961;DHT22;33721;48.852;9.936;2023-04-28T09:25:22;11.80;99.90
47961;DHT22;33721;48.852;9.936;2023-04-28T09:27:52;11.90;99.90
47961;DHT22;33721;48.852;9.936;2023-04-28T09:30:17;12.00;99.90
47961;DHT22;33721;48.852;9.936;2023-04-28T09:33:03;12.10;99.90
47961;DHT22;33721;48.852;9.936;2023-04-28T09:35:40;12.10;99.90
47961;DHT22;33721;48.852;9.936;2023-04-28T09:38:05;12.20;99.90
47961;DHT22;33721;48.852;9.936;2023-04-28T09:40:31;12.20;99.90
47961;DHT22;33721;48.852;9.936;2023-04-28T09:42:58;12.20;99.90
47961;DHT22;33721;48.852;9.936;2023-04-28T09:45:27;12.20;99.90
47961;DHT22;33721;48.852;9.936;2023-04-28T09:48:09;12.20;99.90
47961;DHT22;33721;48.852;9.936;2023-04-28T09:50:39;12.20;99.90
47961;DHT22;33721;48.852;9.936;2023-04-28T09:53:07;12.20;99.90
47961;DHT22;33721;48.852;9.936;2023-04-28T09:55:41;12.20;99.90
47961;DHT22;33721;48.852;9.936;2023-04-28T09:58:17;12.30;99.90
47961;DHT22;33721;48.852;9.936;2023-04-28T10:00:44;12.30;99.90
47961;DHT22;33721;48.852;9.936;2023-04-28T10:03:10;12.30;99.90
47961;DHT22;33721;48.852;9.936;2023-04-28T10:05:36;12.40;99.90
47961;DHT22;33721;48.852;9.936;2023-04-28T10:08:04;12.50;99.90
47961;DHT22;33721;48.852;9.936;2023-04-28T10:10:37;12.40;99.90
47961;DHT22;33721;48.852;9.936;2023-04-28T10:13:03;12.50;99.90
47961;DHT22;33721;48.852;9.936;2023-04-28T10:15:30;12.50;99.90
47961;DHT22;33721;48.852;9.936;2023-04-28T10:17:58;12.70;99.90
47961;DHT22;33721;48.852;9.936;2023-04-28T10:20:30;12.80;99.90
47961;DHT22;33721;48.852;9.936;2023-04-28T10:25:59;12.80;99.90
47961;DHT22;33721;48.852;9.936;2023-04-28T10:28:27;12.80;99.90
47961;DHT22;33721;48.852;9.936;2023-04-28T10:33:42;12.90;99.90
47961;DHT22;33721;48.852;9.936;2023-04-28T10:36:08;12.80;99.90
47961;DHT22;33721;48.852;9.936;2023-04-28T10:38:34;12.80;99.90
47961;DHT22;33721;48.852;9.936;2023-04-28T10:41:00;12.90;99.90
47961;DHT22;33721;48.852;9.936;2023-04-28T10:56:26;13.20;99.90
47961;DHT22;33721;48.852;9.936;2023-04-28T10:58:53;13.20;99.90
47961;DHT22;33721;48.852;9.936;2023-04-28T11:03:55;13.20;99.90
47961;DHT22;33721;48.852;9.936;2023-04-28T11:06:35;13.20;99.90
47961;DHT22;33721;48.852;9.936;2023-04-28T11:11:37;13.30;99.90
47961;DHT22;33721;48.852;9.936;2023-04-28T11:19:30;13.30;99.90
47961;DHT22;33721;48.852;9.936;2023-04-28T11:22:03;13.30;99.90
47961;DHT22;33721;48.852;9.936;2023-04-28T11:24:29;13.40;99.90
47961;DHT22;33721;48.852;9.936;2023-04-28T11:26:59;13.40;99.90
47961;DHT22;33721;48.852;9.936;2023-04-28T11:31:58;13.50;99.90
47961;DHT22;33721;48.852;9.936;2023-04-28T11:34:24;13.60;99.90
47961;DHT22;33721;48.852;9.936;2023-04-28T11:36:50;13.60;99.90
47961;DHT22;33721;48.852;9.936;2023-04-28T11:39:16;13.90;99.90
47961;DHT22;33721;48.852;9.936;2023-04-28T11:41:49;14.00;99.90
47961;DHT22;33721;48.852;9.936;2023-04-28T11:44:23;14.10;99.90
47961;DHT22;33721;48.852;9.936;2023-04-28T11:46:51;14.10;99.90
47961;DHT22;33721;48.852;9.936;2023-04-28T11:52:04;14.00;99.90
47961;DHT22;33721;48.852;9.936;2023-04-28T11:54:31;14.10;99.90
47961;DHT22;33721;48.852;9.936;2023-04-28T11:56:58;14.00;99.90
47961;DHT22;33721;48.852;9.936;2023-04-28T11:59:27;14.10;99.90
47961;DHT22;33721;48.852;9.936;2023-04-28T12:01:57;14.10;99.90
47961;DHT22;33721;48.852;9.936;2023-04-28T12:07:16;14.20;99.90
47961;DHT22;33721;48.852;9.936;2023-04-28T12:09:45;14.20;99.90
47961;DHT22;33721;48.852;9.936;2023-04-28T12:12:28;14.20;99.90
47961;DHT22;33721;48.852;9.936;2023-04-28T12:14:59;14.30;99.90
47961;DHT22;33721;48.852;9.936;2023-04-28T12:17:30;14.40;99.90
47961;DHT22;33721;48.852;9.936;2023-04-28T12:19:59;14.50;99.90
47961;DHT22;33721;48.852;9.936;2023-04-28T12:22:25;14.60;99.90
47961;DHT22;33721;48.852;9.936;2023-04-28T12:25:08;14.70;99.90
47961;DHT22;33721;48.852;9.936;2023-04-28T12:27:36;14.80;99.90
47961;DHT22;33721;48.852;9.936;2023-04-28T12:30:28;14.80;99.90
47961;DHT22;33721;48.852;9.936;2023-04-28T12:32:55;14.80;99.90
47961;DHT22;33721;48.852;9.936;2023-04-28T12:35:21;14.80;99.90
47961;DHT22;33721;48.852;9.936;2023-04-28T12:37:47;14.90;99.90
47961;DHT22;33721;48.852;9.936;2023-04-28T12:40:13;14.80;99.90
47961;DHT22;33721;48.852;9.936;2023-04-28T12:42:39;14.80;99.90
47961;DHT22;33721;48.852;9.936;2023-04-28T12:45:06;14.70;99.90
47961;DHT22;33721;48.852;9.936;2023-04-28T12:47:32;14.60;99.90
47961;DHT22;33721;48.852;9.936;2023-04-28T12:49:58;14.60;99.90
47961;DHT22;33721;48.852;9.936;2023-04-28T12:52:23;14.60;99.90
47961;DHT22;33721;48.852;9.936;2023-04-28T12:54:49;14.60;99.90
47961;DHT22;33721;48.852;9.936;2023-04-28T12:57:18;14.60;99.90
47961;DHT22;33721;48.852;9.936;2023-04-28T12:59:44;14.70;99.90
47961;DHT22;33721;48.852;9.936;2023-04-28T13:02:11;14.80;99.90
47961;DHT22;33721;48.852;9.936;2023-04-28T13:04:38;14.80;99.90
47961;DHT22;33721;48.852;9.936;2023-04-28T13:07:03;14.90;99.90
47961;DHT22;33721;48.852;9.936;2023-04-28T13:09:31;14.90;99.90
47961;DHT22;33721;48.852;9.936;2023-04-28T13:11:57;14.80;99.90
47961;DHT22;33721;48.852;9.936;2023-04-28T13:14:25;14.80;99.90
47961;DHT22;33721;48.852;9.936;2023-04-28T13:16:52;14.80;99.90
47961;DHT22;33721;48.852;9.936;2023-04-28T13:19:17;14.70;99.90
47961;DHT22;33721;48.852;9.936;2023-04-28T13:21:43;14.70;99.90
47961;DHT22;33721;48.852;9.936;2023-04-28T13:24:11;14.60;99.90
47961;DHT22;33721;48.852;9.936;2023-04-28T13:26:38;14.50;99.90
47961;DHT22;33721;48.852;9.936;2023-04-28T13:29:04;14.50;99.90
47961;DHT22;33721;48.852;9.936;2023-04-28T13:31:32;14.50;99.90
47961;DHT22;33721;48.852;9.936;2023-04-28T13:33:57;14.50;99.90
47961;DHT22;33721;48.852;9.936;2023-04-28T13:36:26;14.40;99.90
47961;DHT22;33721;48.852;9.936;2023-04-28T13:38:54;14.40;99.90
47961;DHT22;33721;48.852;9.936;2023-04-28T13:41:19;14.40;99.90
47961;DHT22;33721;48.852;9.936;2023-04-28T13:43:46;14.40;99.90
47961;DHT22;33721;48.852;9.936;2023-04-28T13:46:12;14.50;99.90
47961;DHT22;33721;48.852;9.936;2023-04-28T13:48:38;14.60;99.90
47961;DHT22;33721;48.852;9.936;2023-04-28T13:51:04;14.70;99.90
47961;DHT22;33721;48.852;9.936;2023-04-28T13:53:30;14.70;99.90
47961;DHT22;33721;48.852;9.936;2023-04-28T13:55:56;14.70;99.90
47961;DHT22;33721;48.852;9.936;2023-04-28T13:58:23;14.70;99.90
47961;DHT22;33721;48.852;9.936;2023-04-28T14:00:49;14.70;99.90
47961;DHT22;33721;48.852;9.936;2023-04-28T14:03:15;14.60;99.90
47961;DHT22;33721;48.852;9.936;2023-04-28T14:05:41;14.60;99.90
47961;DHT22;33721;48.852;9.936;2023-04-28T14:08:08;14.60;99.90
47961;DHT22;33721;48.852;9.936;2023-04-28T14:10:34;14.60;99.90
47961;DHT22;33721;48.852;9.936;2023-04-28T14:13:00;14.50;99.90
47961;DHT22;33721;48.852;9.936;2023-04-28T14:15:26;14.50;99.90
47961;DHT22;33721;48.852;9.936;2023-04-28T14:17:51;14.50;99.90
47961;DHT22;33721;48.852;9.936;2023-04-28T14:20:17;14.40;99.90
47961;DHT22;33721;48.852;9.936;2023-04-28T14:22:43;14.30;99.90
47961;DHT22;33721;48.852;9.936;2023-04-28T14:25:09;14.20;99.90
47961;DHT22;33721;48.852;9.936;2023-04-28T14:27:35;14.30;99.90
47961;DHT22;33721;48.852;9.936;2023-04-28T14:30:00;14.30;99.90
47961;DHT22;33721;48.852;9.936;2023-04-28T14:32:26;14.30;99.90
47961;DHT22;33721;48.852;9.936;2023-04-28T14:34:52;14.30;99.90
47961;DHT22;33721;48.852;9.936;2023-04-28T14:37:18;14.40;99.90
47961;DHT22;33721;48.852;9.936;2023-04-28T14:39:43;14.50;99.90
47961;DHT22;33721;48.852;9.936;2023-04-28T14:42:09;14.70;99.90
47961;DHT22;33721;48.852;9.936;2023-04-28T14:44:36;14.80;99.90
47961;DHT22;33721;48.852;9.936;2023-04-28T14:47:02;14.90;99.90
47961;DHT22;33721;48.852;9.936;2023-04-28T14:49:28;15.00;99.90
47961;DHT22;33721;48.852;9.936;2023-04-28T14:51:54;14.90;99.90
47961;DHT22;33721;48.852;9.936;2023-04-28T14:54:20;14.90;99.90
47961;DHT22;33721;48.852;9.936;2023-04-28T14:56:48;14.90;99.90
47961;DHT22;33721;48.852;9.936;2023-04-28T14:59:15;14.80;99.90
47961;DHT22;33721;48.852;9.936;2023-04-28T15:01:40;14.70;99.90
47961;DHT22;33721;48.852;9.936;2023-04-28T15:04:07;14.60;99.90
47961;DHT22;33721;48.852;9.936;2023-04-28T15:06:34;14.60;99.90
47961;DHT22;33721;48.852;9.936;2023-04-28T15:09:00;14.60;99.90
47961;DHT22;33721;48.852;9.936;2023-04-28T15:11:25;14.60;99.90
47961;DHT22;33721;48.852;9.936;2023-04-28T15:13:51;14.60;99.90
47961;DHT22;33721;48.852;9.936;2023-04-28T15:16:18;14.70;99.90
47961;DHT22;33721;48.852;9.936;2023-04-28T15:18:44;14.60;99.90
47961;DHT22;33721;48.852;9.936;2023-04-28T15:21:10;14.50;99.90
47961;DHT22;33721;48.852;9.936;2023-04-28T15:23:36;14.40;99.90
47961;DHT22;33721;48.852;9.936;2023-04-28T15:26:02;14.30;99.90
47961;DHT22;33721;48.852;9.936;2023-04-28T15:28:28;14.30;99.90
47961;DHT22;33721;48.852;9.936;2023-04-28T15:30:53;14.30;99.90
47961;DHT22;33721;48.852;9.936;2023-04-28T15:33:19;14.30;99.90
47961;DHT22;33721;48.852;9.936;2023-04-28T15:35:45;14.20;99.90
47961;DHT22;33721;48.852;9.936;2023-04-28T15:38:12;14.20;99.90
47961;DHT22;33721;48.852;9.936;2023-04-28T15:40:39;14.20;99.90
47961;DHT22;33721;48.852;9.936;2023-04-28T15:43:05;14.10;99.90
47961;DHT22;33721;48.852;9.936;2023-04-28T15:45:31;14.00;99.90
47961;DHT22;33721;48.852;9.936;2023-04-28T15:47:58;14.00;99.90
47961;DHT22;33721;48.852;9.936;2023-04-28T15:50:24;14.00;99.90
47961;DHT22;33721;48.852;9.936;2023-04-28T15:52:50;14.00;99.90
47961;DHT22;33721;48.852;9.936;2023-04-28T15:55:18;14.00;99.90
47961;DHT22;33721;48.852;9.936;2023-04-28T15:57:45;14.00;99.90
47961;DHT22;33721;48.852;9.936;2023-04-28T16:00:11;14.00;99.90
47961;DHT22;33721;48.852;9.936;2023-04-28T16:02:38;14.00;99.90
47961;DHT22;33721;48.852;9.936;2023-04-28T16:05:04;14.00;99.90
47961;DHT22;33721;48.852;9.936;2023-04-28T16:07:31;14.00;99.90
47961;DHT22;33721;48.852;9.936;2023-04-28T16:10:07;14.00;99.90